Time;durP1;ratioP1;P1;durP2;ratioP2;P2;SDS_P1;SDS_P2;PMS_P1;PMS_P2;Temp;Humidity;BMP_temperature;BMP_pressure;BME280_temperature;BME280_humidity;BME280_pressure;Samples;Min_cycle;Max_cycle;Signal;HPM_P1;HPM_P2
2022/10/18 00:01:53;;;;;;;17.55;11.97;;;;;;;11.85;71.05;101215.57;2180296;81;29157;-65
2022/10/18 00:04:55;;;;;;;14.15;11.48;;;;;;;11.81;71.15;101211.28;2180383;81;27687;-65
2022/10/18 00:07:58;;;;;;;17.23;11.57;;;;;;;11.76;71.20;101214.61;2180817;81;29929;-64
2022/10/18 00:11:00;;;;;;;16.27;12.30;;;;;;;11.72;71.29;101208.09;2181142;81;30997;-64
2022/10/18 00:14:01;;;;;;;16.25;11.33;;;;;;;11.67;71.47;101213.63;2180845;81;33328;-64
2022/10/18 00:17:04;;;;;;;15.50;11.95;;;;;;;11.62;71.52;101214.29;2180601;81;30220;-64
2022/10/18 00:20:08;;;;;;;19.12;11.83;;;;;;;11.58;71.71;101209.97;2180666;81;27704;-64
2022/10/18 00:23:09;;;;;;;14.50;11.78;;;;;;;11.53;71.74;101211.50;2205529;80;29502;-64
2022/10/18 00:26:21;;;;;;;14.38;11.43;;;;;;;11.49;71.86;101218.80;2218527;79;31554;-64
2022/10/18 00:29:23;;;;;;;15.53;11.55;;;;;;;11.45;71.93;101209.11;2188923;76;32978;-57
2022/10/18 00:32:25;;;;;;;18.10;11.88;;;;;;;11.41;72.03;101214.19;2151365;82;30076;-58
2022/10/18 00:35:27;;;;;;;17.12;11.93;;;;;;;11.37;72.13;101212.55;2151690;82;27719;-60
2022/10/18 00:38:28;;;;;;;17.15;11.83;;;;;;;11.33;72.15;101210.94;2151759;82;29052;-63
2022/10/18 00:41:32;;;;;;;24.65;13.35;;;;;;;11.28;72.22;101207.06;2151433;82;32221;-57
2022/10/18 00:44:39;;;;;;;13.70;11.80;;;;;;;11.27;72.37;101211.16;2151836;82;33011;-58
2022/10/18 00:47:43;;;;;;;17.00;13.10;;;;;;;11.22;72.44;101218.91;2151720;82;29379;-60
2022/10/18 00:50:46;;;;;;;17.82;13.32;;;;;;;11.18;72.90;101218.59;2151667;82;27738;-59
2022/10/18 00:53:48;;;;;;;23.15;13.22;;;;;;;11.17;72.84;101214.65;2151697;82;28706;-63
2022/10/18 00:56:50;;;;;;;19.10;13.08;;;;;;;11.15;73.14;101207.13;2151576;82;31834;-58
2022/10/18 00:59:52;;;;;;;20.30;13.03;;;;;;;11.13;73.32;101205.85;2150740;82;34094;-60
2022/10/18 01:02:55;;;;;;;15.98;12.23;;;;;;;11.12;73.29;101202.76;2140176;83;29389;-62
2022/10/18 01:05:56;;;;;;;15.10;12.05;;;;;;;11.08;73.31;101203.34;2102148;84;27673;-58
2022/10/18 01:09:16;;;;;;;22.20;14.75;;;;;;;11.06;73.37;101202.52;2117739;84;29919;-58
2022/10/18 01:13:02;;;;;;;19.05;13.20;;;;;;;11.04;73.64;101201.70;2178214;81;30999;-61
2022/10/18 01:16:40;;;;;;;18.52;12.53;;;;;;;11.03;73.71;101201.74;2149855;82;33338;-58
2022/10/18 01:20:03;;;;;;;17.52;11.97;;;;;;;10.97;73.67;101197.48;2138591;83;29225;-58
2022/10/18 01:23:34;;;;;;;18.02;12.88;;;;;;;10.92;73.71;101201.69;2117839;84;27723;-61
2022/10/18 01:27:18;;;;;;;17.60;11.95;;;;;;;10.89;73.92;101192.89;2178053;81;28903;-60
2022/10/18 01:30:51;;;;;;;17.40;12.07;;;;;;;10.84;73.83;101189.49;2178128;81;30965;-58
2022/10/18 01:34:03;;;;;;;18.25;12.28;;;;;;;10.81;73.93;101189.59;2084976;85;33006;-58
2022/10/18 01:37:07;;;;;;;16.12;12.45;;;;;;;10.76;74.01;101182.59;2083161;85;29397;-60
2022/10/18 01:40:11;;;;;;;19.05;13.08;;;;;;;10.71;73.96;101184.58;2085249;85;27787;-57
2022/10/18 01:43:13;;;;;;;16.67;11.83;;;;;;;10.68;74.10;101183.80;2007234;88;29068;-57
2022/10/18 01:46:18;;;;;;;17.95;11.95;;;;;;;10.64;74.11;101177.68;2007239;88;32404;-58
2022/10/18 01:49:20;;;;;;;15.08;11.43;;;;;;;10.60;74.15;101172.91;2007349;88;34131;-58
2022/10/18 01:52:21;;;;;;;14.40;12.15;;;;;;;10.56;74.24;101173.94;2007252;88;29162;-59
2022/10/18 01:55:40;;;;;;;20.75;12.80;;;;;;;10.54;74.34;101178.47;2008468;88;27665;-62
2022/10/18 01:58:55;;;;;;;17.00;12.90;;;;;;;10.50;74.28;101174.17;2023232;87;28691;-61
2022/10/18 02:02:31;;;;;;;17.80;13.18;;;;;;;10.48;74.43;101181.38;2042441;87;30963;-58
2022/10/18 02:05:47;;;;;;;20.27;13.00;;;;;;;10.46;74.65;101180.08;2087886;84;33388;-61
2022/10/18 02:09:17;;;;;;;20.40;14.28;;;;;;;10.45;74.75;101178.80;2141993;83;29491;-57
2022/10/18 02:12:19;;;;;;;20.77;13.48;;;;;;;10.43;75.03;101176.16;2119935;84;27601;-57
2022/10/18 02:15:25;;;;;;;18.92;13.22;;;;;;;10.44;74.97;101181.94;2180843;81;29252;-57
2022/10/18 02:18:32;;;;;;;22.35;15.28;;;;;;;10.41;74.95;101176.70;2141866;83;31029;-60
2022/10/18 02:21:34;;;;;;;21.48;13.83;;;;;;;10.38;75.00;101175.47;2150826;81;33571;-62
2022/10/18 02:24:41;;;;;;;19.67;13.03;;;;;;;10.37;75.06;101177.70;2151378;81;29403;-62
2022/10/18 02:27:43;;;;;;;18.57;13.98;;;;;;;10.35;75.09;101178.22;2177879;81;28214;-57
2022/10/18 02:30:55;;;;;;;23.18;14.47;;;;;;;10.33;75.16;101178.28;2145741;81;28734;-57
2022/10/18 02:34:24;;;;;;;24.10;15.83;;;;;;;10.31;75.08;101176.11;2117609;84;32282;-57
2022/10/18 02:37:34;;;;;;;20.55;15.75;;;;;;;10.30;75.43;101181.06;2104625;84;34100;-58
2022/10/18 02:40:35;;;;;;;20.15;15.03;;;;;;;10.31;75.58;101172.55;2082333;85;29624;-57
2022/10/18 02:43:36;;;;;;;23.85;15.10;;;;;;;10.30;75.59;101167.67;2080496;85;27678;-57
2022/10/18 02:46:39;;;;;;;23.30;14.98;;;;;;;10.30;75.60;101176.15;2104421;84;29084;-57
2022/10/18 02:49:40;;;;;;;21.48;14.50;;;;;;;10.27;75.55;101178.48;2082479;85;31404;-58
2022/10/18 02:52:41;;;;;;;20.27;15.28;;;;;;;10.25;75.52;101184.34;2080740;85;33341;-58
2022/10/18 02:55:44;;;;;;;23.40;15.20;;;;;;;10.26;75.67;101179.88;2081678;84;30163;-58
2022/10/18 02:58:45;;;;;;;23.90;17.70;;;;;;;10.24;75.65;101182.59;2119578;84;27663;-58
2022/10/18 03:01:47;;;;;;;20.80;15.30;;;;;;;10.23;75.81;101183.52;2119656;84;28662;-62
2022/10/18 03:04:48;;;;;;;30.48;22.40;;;;;;;10.21;75.78;101181.83;2144554;83;32252;-57
2022/10/18 03:07:49;;;;;;;26.70;20.37;;;;;;;10.21;75.92;101191.20;2144597;82;33323;-63
2022/10/18 03:10:51;;;;;;;25.55;19.57;;;;;;;10.19;75.97;101182.76;2144784;82;28939;-60
2022/10/18 03:13:52;;;;;;;35.88;24.47;;;;;;;10.16;75.89;101193.56;2144757;83;27679;-57
2022/10/18 03:16:53;;;;;;;39.10;26.68;;;;;;;10.16;75.94;101192.70;2144550;83;29829;-57
2022/10/18 03:19:54;;;;;;;43.80;28.67;;;;;;;10.15;75.98;101197.65;2144527;82;30802;-58
2022/10/18 03:22:56;;;;;;;48.08;29.90;;;;;;;10.16;76.24;101199.41;2119682;84;33672;-60
2022/10/18 03:25:57;;;;;;;51.63;30.02;;;;;;;10.18;76.44;101203.77;2144145;83;30182;-58
2022/10/18 03:28:58;;;;;;;41.00;27.98;;;;;;;10.17;76.45;101201.16;2145151;82;27648;-57
2022/10/18 03:32:00;;;;;;;42.25;26.70;;;;;;;10.16;76.35;101202.94;2153389;82;29304;-57
2022/10/18 03:35:01;;;;;;;40.33;26.02;;;;;;;10.14;76.32;101208.80;2160605;81;32254;-59
2022/10/18 03:38:02;;;;;;;40.55;26.57;;;;;;;10.12;76.35;101206.64;2160590;81;34111;-60
2022/10/18 03:41:05;;;;;;;37.70;25.40;;;;;;;10.10;76.31;101205.81;2160618;82;29266;-57
2022/10/18 03:44:06;;;;;;;38.08;25.43;;;;;;;10.09;76.35;101205.88;2160570;81;27706;-62
2022/10/18 03:47:08;;;;;;;41.10;26.77;;;;;;;10.08;76.48;101210.37;2160166;82;28747;-59
2022/10/18 03:50:09;;;;;;;39.53;25.95;;;;;;;10.07;76.65;101213.08;2160678;82;32214;-62
2022/10/18 03:53:11;;;;;;;38.90;24.87;;;;;;;10.06;76.62;101214.00;2160440;81;34244;-59
2022/10/18 03:56:12;;;;;;;41.80;25.48;;;;;;;10.05;76.61;101214.47;2160192;82;29473;-62
2022/10/18 03:59:15;;;;;;;47.45;28.50;;;;;;;10.03;76.64;101217.66;2160868;81;28249;-61
2022/10/18 04:02:18;;;;;;;102.92;53.48;;;;;;;10.03;76.71;101223.02;2160517;81;28627;-58
2022/10/18 04:05:19;;;;;;;82.60;42.83;;;;;;;10.01;76.91;101220.37;2160597;82;31482;-59
2022/10/18 04:08:20;;;;;;;60.12;33.30;;;;;;;10.01;76.89;101221.70;2160305;82;33406;-58
2022/10/18 04:11:21;;;;;;;51.30;28.50;;;;;;;9.99;76.82;101224.92;2160347;81;29368;-58
2022/10/18 04:14:23;;;;;;;36.93;24.20;;;;;;;9.98;76.84;101221.83;2160594;81;27650;-61
2022/10/18 04:17:24;;;;;;;41.20;24.10;;;;;;;9.97;76.92;101225.88;2160302;82;28686;-58
2022/10/18 04:20:26;;;;;;;35.35;21.23;;;;;;;9.95;76.83;101225.05;2159922;81;31474;-65
2022/10/18 04:23:27;;;;;;;27.42;19.73;;;;;;;9.93;76.88;101229.13;2159864;81;33015;-62
2022/10/18 04:26:28;;;;;;;31.77;21.17;;;;;;;9.90;76.86;101230.55;2189558;81;30190;-64
2022/10/18 04:29:30;;;;;;;34.33;21.10;;;;;;;9.88;76.88;101228.39;2189691;81;28251;-61
2022/10/18 04:32:33;;;;;;;31.45;21.20;;;;;;;9.86;76.87;101231.56;2149207;81;29454;-57
2022/10/18 04:35:36;;;;;;;30.55;20.82;;;;;;;9.84;76.98;101228.09;2144632;82;31978;-62
2022/10/18 04:38:37;;;;;;;32.28;20.70;;;;;;;9.81;76.96;101227.70;2144587;83;34163;-58
2022/10/18 04:41:38;;;;;;;29.35;19.82;;;;;;;9.78;76.95;101218.44;2144651;82;29360;-61
2022/10/18 04:44:39;;;;;;;29.72;19.82;;;;;;;9.77;76.99;101221.17;2144616;82;27605;-61
2022/10/18 04:47:41;;;;;;;31.60;21.07;;;;;;;9.75;77.05;101225.25;2144606;82;29882;-61
2022/10/18 04:50:42;;;;;;;36.98;23.92;;;;;;;9.72;77.04;101226.67;2119794;84;31384;-57
2022/10/18 04:53:44;;;;;;;39.05;26.62;;;;;;;9.71;77.22;101219.09;2118744;84;33010;-63
2022/10/18 04:56:45;;;;;;;42.05;29.77;;;;;;;9.69;77.21;101222.27;2117894;83;29649;-64
2022/10/18 04:59:46;;;;;;;43.35;30.15;;;;;;;9.69;77.23;101224.09;2118145;84;28215;-57
2022/10/18 05:02:48;;;;;;;47.20;30.82;;;;;;;9.69;77.26;101220.08;2118196;83;28657;-57
2022/10/18 05:05:49;;;;;;;40.78;27.73;;;;;;;9.66;77.30;101219.72;2117491;84;32268;-57
2022/10/18 05:08:50;;;;;;;40.50;26.50;;;;;;;9.66;77.36;101218.83;2118098;83;33611;-57
2022/10/18 05:11:52;;;;;;;41.00;23.57;;;;;;;9.66;77.38;101219.72;2117520;83;30194;-58
2022/10/18 05:14:53;;;;;;;29.40;21.37;;;;;;;9.66;77.48;101219.72;2117942;83;27662;-58
2022/10/18 05:17:55;;;;;;;30.00;20.50;;;;;;;9.67;77.48;101217.45;2117487;84;28358;-57
2022/10/18 05:20:56;;;;;;;25.10;20.00;;;;;;;9.68;77.61;101222.33;2117622;84;31401;-57
2022/10/18 05:23:58;;;;;;;32.73;20.75;;;;;;;9.66;77.60;101221.05;2118424;83;33407;-57
2022/10/18 05:26:59;;;;;;;28.60;20.23;;;;;;;9.67;77.59;101221.47;2138153;83;28895;-58
2022/10/18 05:30:00;;;;;;;31.12;21.55;;;;;;;9.66;77.60;101219.72;2119663;84;27615;-62
2022/10/18 05:33:02;;;;;;;32.08;22.42;;;;;;;9.66;77.64;101217.05;2157411;80;28861;-62
2022/10/18 05:36:04;;;;;;;62.08;27.70;;;;;;;9.66;77.71;101217.05;2205516;80;32271;-57
2022/10/18 05:39:06;;;;;;;47.70;25.88;;;;;;;9.69;77.98;101212.05;2206034;80;33332;-57
2022/10/18 05:42:07;;;;;;;54.05;27.15;;;;;;;9.72;78.04;101210.14;2205989;80;29400;-58
2022/10/18 05:45:09;;;;;;;60.45;28.35;;;;;;;9.75;78.04;101210.97;2206318;80;27992;-57
2022/10/18 05:48:11;;;;;;;55.98;27.02;;;;;;;9.77;78.07;101209.13;2206289;80;29108;-56
2022/10/18 05:51:12;;;;;;;54.95;27.17;;;;;;;9.80;78.07;101207.70;2205722;80;32054;-57
2022/10/18 05:54:14;;;;;;;56.70;26.60;;;;;;;9.84;78.16;101214.71;2196052;80;33310;-58
2022/10/18 05:57:15;;;;;;;51.68;25.77;;;;;;;9.86;78.23;101214.17;2187563;81;29792;-64
2022/10/18 06:00:19;;;;;;;55.12;25.48;;;;;;;9.92;78.28;101211.79;2187637;81;27686;-58
2022/10/18 06:03:20;;;;;;;55.00;26.00;;;;;;;9.99;78.46;101215.55;2187457;81;29727;-57
2022/10/18 06:06:21;;;;;;;49.93;25.57;;;;;;;10.07;78.63;101213.97;2187568;81;31464;-57
2022/10/18 06:09:23;;;;;;;51.08;23.95;;;;;;;10.14;78.70;101220.85;2187203;81;33396;-63
2022/10/18 06:12:25;;;;;;;42.67;24.35;;;;;;;10.25;78.92;101222.32;2187538;81;29410;-58
2022/10/18 06:15:27;;;;;;;38.53;23.75;;;;;;;10.34;78.89;101220.17;2187676;81;27709;-56
2022/10/18 06:18:28;;;;;;;35.35;21.23;;;;;;;;;;2187541;81;29822;-57
2022/10/18 06:21:29;;;;;;;40.08;23.25;;;;;;;10.59;79.06;101222.06;2187539;81;31400;-60
2022/10/18 06:24:31;;;;;;;41.37;21.10;;;;;;;10.73;79.12;101226.05;2201354;80;33358;-63
2022/10/18 06:27:34;;;;;;;38.80;23.42;;;;;;;10.87;79.17;101233.14;2206014;80;30318;-57
2022/10/18 06:30:35;;;;;;;46.65;22.17;;;;;;;11.03;79.28;101233.92;2206247;80;27670;-62
2022/10/18 06:33:37;;;;;;;38.15;21.93;;;;;;;11.18;79.25;101236.03;2209130;80;29415;-57
2022/10/18 06:36:38;;;;;;;35.43;21.15;;;;;;;11.33;79.28;101231.05;2209075;80;31145;-63
2022/10/18 06:39:39;;;;;;;41.98;23.02;;;;;;;11.48;79.26;101218.84;2209141;80;33757;-59
2022/10/18 06:42:41;;;;;;;40.40;22.42;;;;;;;11.62;79.27;101222.34;2208847;80;29115;-61
2022/10/18 06:45:43;;;;;;;37.30;23.15;;;;;;;11.76;79.20;101223.12;2209365;80;27662;-63
2022/10/18 06:48:44;;;;;;;37.73;23.57;;;;;;;11.88;79.14;101223.10;2209185;80;29849;-57
2022/10/18 06:51:46;;;;;;;44.77;23.42;;;;;;;12.02;79.20;101222.59;2209069;80;31433;-63
2022/10/18 06:54:47;;;;;;;36.42;23.42;;;;;;;12.13;79.17;101223.90;2193641;80;32890;-57
2022/10/18 06:57:48;;;;;;;33.63;22.67;;;;;;;12.27;79.13;101223.79;2158145;82;30207;-63
2022/10/18 07:00:49;;;;;;;34.55;22.82;;;;;;;12.38;79.13;101221.52;2158121;82;27710;-65
2022/10/18 07:03:53;;;;;;;34.05;20.85;;;;;;;12.52;79.09;101231.69;2157897;82;29074;-64
2022/10/18 07:06:54;;;;;;;36.13;19.73;;;;;;;12.65;79.14;101225.77;2158304;82;31390;-65
2022/10/18 07:09:56;;;;;;;27.73;18.90;;;;;;;12.80;79.13;101225.09;2157976;82;34193;-58
2022/10/18 07:12:59;;;;;;;25.82;19.07;;;;;;;12.96;79.12;101224.42;2157910;82;28456;-63
2022/10/18 07:16:08;;;;;;;27.95;18.42;;;;;;;13.13;79.06;101229.91;2157644;82;27660;-59
2022/10/18 07:19:11;;;;;;;36.00;21.15;;;;;;;13.30;78.87;101227.81;2157929;82;28705;-57
2022/10/18 07:22:12;;;;;;;34.90;20.60;;;;;;;13.50;78.66;101208.05;2157948;82;31031;-59
2022/10/18 07:25:15;;;;;;;26.05;18.62;;;;;;;13.50;78.66;101208.05;2208840;80;33358;-58
2022/10/18 07:28:17;;;;;;;32.30;19.52;;;;;;;13.78;78.32;101213.45;2209409;80;29390;-59
2022/10/18 07:31:18;;;;;;;28.87;19.00;;;;;;;13.78;78.32;101213.45;2208868;80;27646;-64
2022/10/18 07:34:20;;;;;;;28.98;19.17;;;;;;;14.07;78.31;101225.97;2208827;80;29373;-65
2022/10/18 07:37:21;;;;;;;24.63;17.25;;;;;;;14.28;78.18;101236.63;2198729;80;31484;-63
2022/10/18 07:40:22;;;;;;;29.90;18.90;;;;;;;14.64;78.21;101240.25;2192434;81;34174;-62
2022/10/18 07:43:24;;;;;;;32.78;18.70;;;;;;;14.64;78.21;101240.25;2192209;81;29797;-64
2022/10/18 07:46:26;;;;;;;26.85;17.12;;;;;;;14.83;77.70;101242.39;2166933;81;28301;-65
2022/10/18 07:49:27;;;;;;;30.32;17.73;;;;;;;15.01;77.18;101233.81;2192413;81;28672;-65
2022/10/18 07:52:29;;;;;;;25.90;17.00;;;;;;;15.19;77.18;101232.44;2192193;80;31378;-64
2022/10/18 07:55:30;;;;;;;27.25;17.50;;;;;;;15.39;76.88;101229.98;2190492;80;32733;-65
2022/10/18 07:58:33;;;;;;;26.37;15.83;;;;;;;15.62;76.58;101229.20;2157493;82;30192;-61
2022/10/18 08:01:34;;;;;;;31.73;16.55;;;;;;;15.88;76.24;101230.46;2158218;82;27667;-64
2022/10/18 08:04:35;;;;;;;26.30;15.58;;;;;;;16.09;75.68;101224.30;2157542;82;29622;-64
2022/10/18 08:07:36;;;;;;;26.00;16.67;;;;;;;16.33;75.45;101229.70;2157954;82;31390;-61
2022/10/18 08:10:38;;;;;;;29.05;16.02;;;;;;;16.53;74.81;101223.98;2158088;82;33496;-63
2022/10/18 08:13:39;;;;;;;27.07;15.98;;;;;;;16.71;74.64;101223.84;2157752;82;29388;-63
2022/10/18 08:16:41;;;;;;;33.30;15.30;;;;;;;16.84;73.99;101214.00;2119277;84;27591;-63
2022/10/18 08:19:43;;;;;;;24.45;15.18;;;;;;;16.97;73.58;101210.55;2157464;82;29741;-59
2022/10/18 08:22:44;;;;;;;26.65;16.52;;;;;;;17.08;73.22;101210.75;2158113;82;30970;-64
2022/10/18 08:25:45;;;;;;;27.02;17.02;;;;;;;17.19;73.26;101207.88;2159824;82;33320;-65
2022/10/18 08:28:47;;;;;;;26.48;16.85;;;;;;;17.32;73.11;101204.77;2159815;82;29420;-63
2022/10/18 08:31:49;;;;;;;28.07;16.37;;;;;;;17.42;72.95;101186.94;2157822;82;28291;-63
2022/10/18 08:34:51;;;;;;;32.23;15.78;;;;;;;17.54;72.35;101185.78;2149700;82;29109;-64
2022/10/18 08:37:52;;;;;;;26.50;12.98;;;;;;;17.67;72.09;101185.83;2150032;82;31468;-63
2022/10/18 08:40:53;;;;;;;22.40;13.50;;;;;;;17.78;71.86;101179.24;2149997;82;33335;-63
2022/10/18 08:44:23;;;;;;;20.23;11.73;;;;;;;17.91;71.89;101173.39;2149764;82;29179;-64
2022/10/18 08:47:33;;;;;;;17.05;11.28;;;;;;;18.06;71.25;101170.64;2150173;82;27665;-63
2022/10/18 08:50:36;;;;;;;14.23;11.97;;;;;;;18.24;71.25;101163.59;2149472;82;28876;-63
2022/10/18 08:53:51;;;;;;;16.52;12.10;;;;;;;18.41;71.11;101164.66;2149482;82;31050;-63
2022/10/18 08:57:01;;;;;;;16.52;11.40;;;;;;;18.59;70.63;101173.36;2147877;82;34172;-63
2022/10/18 09:00:19;;;;;;;16.93;10.95;;;;;;;18.78;70.39;101163.92;2110057;84;29067;-63
2022/10/18 09:03:44;;;;;;;16.62;11.25;;;;;;;18.97;70.24;101151.30;2147226;82;27734;-61
2022/10/18 09:07:00;;;;;;;17.87;11.10;;;;;;;19.17;69.90;101154.42;2147573;82;29881;-64
2022/10/18 09:10:33;;;;;;;15.50;10.55;;;;;;;19.37;69.66;101149.77;2148047;82;31011;-64
2022/10/18 09:13:59;;;;;;;20.27;10.85;;;;;;;19.58;69.53;101148.67;2147997;82;33741;-73
2022/10/18 09:17:41;;;;;;;15.83;10.28;;;;;;;19.82;68.66;101147.83;2150172;81;28797;-78
2022/10/18 09:21:02;;;;;;;13.85;11.10;;;;;;;19.99;68.42;101151.16;2152931;81;27658;-59
2022/10/18 09:24:27;;;;;;;17.50;11.45;;;;;;;20.17;68.04;101142.06;2108275;84;28671;-76
2022/10/18 09:27:33;;;;;;;15.72;10.50;;;;;;;20.34;67.43;101145.72;2147611;81;31056;-62
2022/10/18 09:30:57;;;;;;;17.52;11.10;;;;;;;20.51;67.47;101125.83;2137527;82;33399;-65
2022/10/18 09:34:04;;;;;;;14.40;11.08;;;;;;;20.69;66.95;101115.33;2149808;81;29372;-68
2022/10/18 09:37:15;;;;;;;16.87;11.70;;;;;;;20.87;66.70;101108.95;2186058;80;27714;-68
2022/10/18 09:40:26;;;;;;;15.90;10.53;;;;;;;21.01;66.44;101099.68;2175479;81;28649;-68
2022/10/18 09:43:50;;;;;;;20.97;11.55;;;;;;;21.18;65.83;101098.80;2176879;80;32198;-66
2022/10/18 09:47:11;;;;;;;13.43;11.12;;;;;;;21.31;65.79;101103.61;2183215;80;33335;-70
2022/10/18 09:50:33;;;;;;;15.23;11.40;;;;;;;21.38;65.38;101096.63;2154222;82;29141;-68
2022/10/18 09:54:20;;;;;;;13.65;11.50;;;;;;;21.44;64.62;101092.52;2189644;81;27619;-69
2022/10/18 09:57:44;;;;;;;19.05;10.48;;;;;;;21.51;64.92;101091.03;2156597;82;28678;-70
2022/10/18 10:00:48;;;;;;;15.98;10.95;;;;;;;21.63;64.29;101082.36;2134887;82;31035;-72
2022/10/18 10:03:49;;;;;;;17.15;12.25;;;;;;;21.77;64.18;101082.53;2164980;81;33011;-70
2022/10/18 10:06:54;;;;;;;13.48;11.05;;;;;;;21.86;64.05;101076.80;2189618;81;30105;-64
2022/10/18 10:10:00;;;;;;;13.78;10.90;;;;;;;22.01;63.92;101071.90;2189907;81;27722;-71
2022/10/18 10:13:21;;;;;;;14.60;12.10;;;;;;;22.06;62.98;101064.67;2189527;80;29848;-68
2022/10/18 10:16:23;;;;;;;13.68;10.88;;;;;;;22.14;63.38;101065.74;2174604;81;32152;-63
2022/10/18 10:19:37;;;;;;;20.82;11.35;;;;;;;22.24;62.41;101055.41;2189885;80;34136;-63
2022/10/18 10:22:40;;;;;;;13.90;10.48;;;;;;;22.36;62.88;101041.16;2189732;81;29076;-68
2022/10/18 10:25:42;;;;;;;20.08;11.33;;;;;;;22.46;62.40;101040.77;2189522;80;28006;-68
2022/10/18 10:28:47;;;;;;;19.82;10.80;;;;;;;22.57;62.45;101028.89;2189782;80;29409;-64
2022/10/18 10:32:01;;;;;;;14.35;11.05;;;;;;;22.71;62.00;101035.83;2189701;80;31390;-67
2022/10/18 10:35:08;;;;;;;19.40;12.45;;;;;;;22.79;61.99;101016.90;2188723;79;32825;-67
2022/10/18 10:38:15;;;;;;;16.40;11.08;;;;;;;22.90;61.96;101014.05;2187542;80;29424;-70
2022/10/18 10:41:21;;;;;;;19.60;13.22;;;;;;;23.01;61.64;101014.92;2188292;80;27511;-68
2022/10/18 10:44:30;;;;;;;19.62;12.00;;;;;;;23.14;61.49;101016.05;2151712;82;29721;-63
2022/10/18 10:47:32;;;;;;;14.75;10.93;;;;;;;23.16;60.43;101021.75;2152022;82;32259;-69
2022/10/18 10:50:51;;;;;;;14.28;11.22;;;;;;;23.19;60.43;101024.70;2151831;82;33007;-65
2022/10/18 10:54:03;;;;;;;13.98;10.60;;;;;;;23.25;60.41;101018.67;2190428;80;29141;-69
2022/10/18 10:57:11;;;;;;;21.02;10.85;;;;;;;23.33;60.16;101002.95;2161770;81;27727;-67
2022/10/18 11:00:40;;;;;;;18.70;11.12;;;;;;;23.39;59.58;101020.14;2154643;81;28688;-67
2022/10/18 11:03:51;;;;;;;17.55;11.48;;;;;;;23.38;59.46;101007.99;2152427;81;32069;-66
2022/10/18 11:07:01;;;;;;;13.38;10.35;;;;;;;23.36;59.56;101005.38;2184817;80;33809;-63
2022/10/18 11:10:13;;;;;;;14.75;10.98;;;;;;;23.41;59.72;100995.41;2189948;80;29780;-71
2022/10/18 11:13:34;;;;;;;15.48;11.85;;;;;;;23.41;59.19;100987.20;2147968;82;27670;-69
2022/10/18 11:16:44;;;;;;;21.10;10.48;;;;;;;23.44;59.25;100989.63;2182599;80;29051;-69
2022/10/18 11:20:04;;;;;;;17.82;10.25;;;;;;;23.42;58.56;100995.73;2182040;80;31863;-70
2022/10/18 11:23:11;;;;;;;12.73;9.85;;;;;;;23.29;58.59;100994.16;2179922;80;34218;-67
2022/10/18 11:26:18;;;;;;;19.12;10.98;;;;;;;23.31;59.01;100981.73;2178210;81;30210;-66
2022/10/18 11:29:48;;;;;;;16.93;11.48;;;;;;;23.33;58.74;100973.73;2182009;80;27749;-69
2022/10/18 11:33:01;;;;;;;16.93;10.53;;;;;;;23.36;58.91;100976.67;2186786;80;29640;-67
2022/10/18 11:36:11;;;;;;;14.35;10.95;;;;;;;23.36;58.74;100970.72;2183095;81;32348;-66
2022/10/18 11:39:47;;;;;;;20.70;11.57;;;;;;;23.36;58.50;100968.47;2183545;81;34048;-67
2022/10/18 11:43:26;;;;;;;12.78;10.85;;;;;;;23.31;58.06;100956.60;2179997;81;29465;-68
2022/10/18 11:46:58;;;;;;;13.95;11.43;;;;;;;23.23;58.08;100948.76;2180748;81;27719;-67
2022/10/18 11:50:30;;;;;;;17.02;10.23;;;;;;;23.19;58.52;100939.44;2180578;81;29039;-68
2022/10/18 11:53:37;;;;;;;17.25;11.08;;;;;;;23.16;58.42;100924.72;2076102;85;31088;-67
2022/10/18 11:56:53;;;;;;;19.05;10.80;;;;;;;23.12;58.09;100908.23;2076158;85;33159;-69
2022/10/18 12:00:22;;;;;;;14.18;11.73;;;;;;;23.11;58.23;100908.36;2076077;85;30341;-68
2022/10/18 12:03:35;;;;;;;19.27;11.83;;;;;;;23.16;58.09;100912.91;2076504;85;27669;-67
2022/10/18 12:06:40;;;;;;;15.32;10.95;;;;;;;23.17;57.97;100912.74;2076547;85;28574;-66
2022/10/18 12:09:46;;;;;;;15.65;11.08;;;;;;;23.16;57.72;100906.06;2076248;85;31094;-68
2022/10/18 12:12:52;;;;;;;18.00;13.83;;;;;;;23.18;57.62;100895.86;2076011;85;33085;-66
2022/10/18 12:15:55;;;;;;;16.52;11.53;;;;;;;23.14;56.97;100888.45;2076181;85;29194;-68
2022/10/18 12:19:01;;;;;;;14.43;10.32;;;;;;;23.12;57.01;100880.02;2076436;85;27585;-65
2022/10/18 12:22:29;;;;;;;11.38;9.60;;;;;;;23.13;57.17;100884.48;2076079;85;29471;-63
2022/10/18 12:25:34;;;;;;;11.55;9.35;;;;;;;23.20;57.53;100880.17;2033925;87;31042;-64
2022/10/18 12:29:16;;;;;;;16.30;12.00;;;;;;;23.23;57.12;100861.28;2032886;86;33138;-64
2022/10/18 12:32:28;;;;;;;13.68;10.72;;;;;;;23.21;56.87;100861.44;2066038;86;29047;-64
2022/10/18 12:35:36;;;;;;;16.15;11.60;;;;;;;23.20;56.97;100854.21;2055528;85;27842;-67
2022/10/18 12:38:41;;;;;;;14.20;10.55;;;;;;;23.16;56.58;100844.08;2079739;85;28808;-65
2022/10/18 12:41:46;;;;;;;19.57;10.48;;;;;;;23.12;56.58;100847.22;2047629;86;31961;-68
2022/10/18 12:44:48;;;;;;;18.02;10.38;;;;;;;23.07;56.25;100850.39;2079289;85;33871;-67
2022/10/18 12:47:51;;;;;;;13.40;9.95;;;;;;;23.07;56.46;100857.23;2079728;85;29028;-66
2022/10/18 12:51:07;;;;;;;11.73;9.43;;;;;;;23.06;56.36;100843.20;2079444;85;27735;-67
2022/10/18 12:54:11;;;;;;;13.95;11.18;;;;;;;23.04;56.43;100850.68;2047659;86;28650;-67
2022/10/18 12:57:22;;;;;;;20.30;11.57;;;;;;;23.01;56.22;100837.30;2079780;85;30234;-66
2022/10/18 13:00:36;;;;;;;20.35;11.83;;;;;;;22.99;56.44;100842.08;2106224;80;34116;-67
2022/10/18 13:03:43;;;;;;;20.10;10.03;;;;;;;22.96;56.50;100829.54;2123159;83;28189;-67
2022/10/18 13:07:13;;;;;;;15.88;10.32;;;;;;;22.95;56.56;100829.70;2122939;83;27666;-67
2022/10/18 13:10:33;;;;;;;17.35;11.73;;;;;;;22.95;56.68;100824.23;2121579;83;28101;-63
2022/10/18 13:13:46;;;;;;;16.90;12.58;;;;;;;22.96;56.88;100812.30;2123149;83;32443;-64
2022/10/18 13:17:21;;;;;;;16.05;13.00;;;;;;;22.96;56.56;100810.41;2123684;83;33309;-66
2022/10/18 13:20:45;;;;;;;21.77;13.93;;;;;;;22.96;56.47;100816.40;2123323;83;29282;-66
2022/10/18 13:24:23;;;;;;;17.33;11.30;;;;;;;22.90;56.20;100811.86;2137646;82;27629;-63
2022/10/18 13:27:39;;;;;;;15.53;10.75;;;;;;;22.83;56.35;100813.47;2158722;81;28689;-66
2022/10/18 13:31:21;;;;;;;20.30;10.85;;;;;;;22.83;56.19;100818.05;2158119;82;32204;-66
2022/10/18 13:34:36;;;;;;;17.37;11.00;;;;;;;22.81;56.28;100809.13;2110743;84;34160;-67
2022/10/18 13:37:37;;;;;;;;;;;;;;;22.79;56.01;100807.92;2120059;82;30287;-65
2022/10/18 13:40:39;;;;;;;15.95;10.05;;;;;;;22.81;56.12;100811.38;2156934;81;27728;-66
2022/10/18 13:44:03;;;;;;;13.60;10.13;;;;;;;22.80;56.21;100816.48;2149666;82;29560;-67
2022/10/18 13:47:09;;;;;;;16.85;14.13;;;;;;;22.75;55.86;100812.78;2139940;83;33118;-65
2022/10/18 13:50:22;;;;;;;17.98;11.53;;;;;;;22.67;55.87;100807.19;2102292;84;33775;-65
2022/10/18 13:53:35;;;;;;;26.00;19.87;;;;;;;22.57;55.83;100806.33;2118047;84;29450;-65
2022/10/18 13:57:03;;;;;;;18.80;12.65;;;;;;;22.50;55.97;100805.16;2116395;84;27686;-66
2022/10/18 14:00:39;;;;;;;17.57;11.75;;;;;;;22.42;56.07;100809.96;2013962;87;28842;-66
2022/10/18 14:04:07;;;;;;;18.60;10.75;;;;;;;22.30;55.93;100818.25;1919079;92;32418;-66
2022/10/18 14:07:10;;;;;;;14.90;10.85;;;;;;;22.13;55.60;100841.59;1860897;95;34383;-65
2022/10/18 14:10:23;;;;;;;24.85;11.08;;;;;;;21.93;55.74;100850.22;1861168;95;29052;-66
2022/10/18 14:13:30;;;;;;;12.13;9.85;;;;;;;21.76;55.55;100852.22;1889853;94;27748;-66
2022/10/18 14:16:43;;;;;;;17.40;11.75;;;;;;;21.59;55.46;100872.26;1889965;94;28685;-67
2022/10/18 14:19:58;;;;;;;17.40;12.20;;;;;;;21.43;55.83;100884.98;1878175;94;32406;-66